createdAt,value
2019-06-27T00:00:31.436Z,17.54
2019-06-27T00:01:31.455Z,17.59
2019-06-27T00:02:31.476Z,17.48
2019-06-27T00:03:31.508Z,17.48
2019-06-27T00:04:31.520Z,17.60
2019-06-27T00:05:31.546Z,17.51
2019-06-27T00:06:31.670Z,17.41
2019-06-27T00:07:31.588Z,17.42
2019-06-27T00:08:31.604Z,17.46
2019-06-27T00:09:32.027Z,17.42
2019-06-27T00:10:34.243Z,17.42
2019-06-27T00:11:31.674Z,17.34
2019-06-27T00:12:31.697Z,17.29
2019-06-27T00:13:31.711Z,17.29
2019-06-27T00:14:31.730Z,17.26
2019-06-27T00:15:32.024Z,17.38
2019-06-27T00:16:31.779Z,17.34
2019-06-27T00:17:31.795Z,17.36
2019-06-27T00:18:31.817Z,17.38
2019-06-27T00:19:31.846Z,17.34
2019-06-27T00:20:32.010Z,17.20
2019-06-27T00:21:31.880Z,17.26
2019-06-27T00:22:32.351Z,17.41
2019-06-27T00:23:31.928Z,17.44
2019-06-27T00:24:31.946Z,17.49
2019-06-27T00:25:31.971Z,17.52
2019-06-27T00:26:31.986Z,17.59
2019-06-27T00:27:32.009Z,17.59
2019-06-27T00:28:32.029Z,17.46
2019-06-27T00:29:32.122Z,17.30
2019-06-27T00:30:32.085Z,17.26
2019-06-27T00:31:32.100Z,17.24
2019-06-27T00:32:32.116Z,17.31
2019-06-27T00:33:32.136Z,17.27
2019-06-27T00:34:32.156Z,17.24
2019-06-27T00:35:32.180Z,17.26
2019-06-27T00:36:32.202Z,17.23
2019-06-27T00:37:32.231Z,17.24
2019-06-27T00:38:32.247Z,17.26
2019-06-27T00:39:32.263Z,17.26
2019-06-27T00:40:32.290Z,17.30
2019-06-27T00:41:32.305Z,17.26
2019-06-27T00:42:32.327Z,17.29
2019-06-27T00:43:32.348Z,17.30
2019-06-27T00:44:32.379Z,17.46
2019-06-27T00:45:32.393Z,17.46
2019-06-27T00:46:32.412Z,17.46
2019-06-27T00:47:32.441Z,17.49
2019-06-27T00:48:32.463Z,17.51
2019-06-27T00:49:32.482Z,17.49
2019-06-27T00:50:32.503Z,17.54
2019-06-27T00:51:32.518Z,17.57
2019-06-27T00:52:32.544Z,17.46
2019-06-27T00:53:32.569Z,17.44
2019-06-27T00:54:32.583Z,17.22
2019-06-27T00:55:32.611Z,17.24
2019-06-27T00:56:32.627Z,17.44
2019-06-27T00:57:32.658Z,17.44
2019-06-27T00:58:32.667Z,17.48
2019-06-27T00:59:32.691Z,17.41
2019-06-27T01:00:32.711Z,17.38
2019-06-27T01:01:32.747Z,17.44
2019-06-27T01:02:32.752Z,17.46
2019-06-27T01:03:32.784Z,17.48
2019-06-27T01:04:32.813Z,17.26
2019-06-27T01:05:32.824Z,17.39
2019-06-27T01:06:32.838Z,17.48
2019-06-27T01:07:32.858Z,17.56
2019-06-27T01:08:32.889Z,17.60
2019-06-27T01:09:32.912Z,17.65
2019-06-27T01:10:32.922Z,17.49
2019-06-27T01:11:32.956Z,17.45
2019-06-27T01:12:32.971Z,17.52
2019-06-27T01:13:32.987Z,17.48
2019-06-27T01:14:33.017Z,17.39
2019-06-27T01:15:33.031Z,17.27
2019-06-27T01:16:33.068Z,17.38
2019-06-27T01:17:33.079Z,17.26
2019-06-27T01:18:33.092Z,17.34
2019-06-27T01:19:33.171Z,17.34
2019-06-27T01:20:33.136Z,17.29
2019-06-27T01:21:33.157Z,17.38
2019-06-27T01:22:33.184Z,17.38
2019-06-27T01:23:33.199Z,17.36
2019-06-27T01:24:33.227Z,17.31
2019-06-27T01:25:33.243Z,17.29
2019-06-27T01:26:33.271Z,17.24
2019-06-27T01:27:33.293Z,17.33
2019-06-27T01:28:33.321Z,17.49
2019-06-27T01:29:33.334Z,17.42
2019-06-27T01:30:33.348Z,17.31
2019-06-27T01:31:33.370Z,17.27
2019-06-27T01:32:33.394Z,17.29
2019-06-27T01:33:33.414Z,17.26
2019-06-27T01:34:33.846Z,17.42
2019-06-27T01:35:33.455Z,17.39
2019-06-27T01:36:33.491Z,17.34
2019-06-27T01:37:33.506Z,17.46
2019-06-27T01:38:33.522Z,17.44
2019-06-27T01:39:33.544Z,17.46
2019-06-27T01:40:33.632Z,17.48
2019-06-27T01:41:33.583Z,17.52
2019-06-27T01:42:33.612Z,17.51
2019-06-27T01:43:33.628Z,17.36
2019-06-27T01:44:33.682Z,17.26
2019-06-27T01:45:33.668Z,17.16
2019-06-27T01:46:33.701Z,17.15
2019-06-27T01:47:33.725Z,17.15
2019-06-27T01:48:33.740Z,17.11
2019-06-27T01:49:33.753Z,17.11
2019-06-27T01:50:33.783Z,17.04
2019-06-27T01:51:33.797Z,17.08
2019-06-27T01:52:33.819Z,17.14
2019-06-27T01:53:33.842Z,17.20
2019-06-27T01:54:33.865Z,17.24
2019-06-27T01:55:33.882Z,17.20
2019-06-27T01:56:33.902Z,17.19
2019-06-27T01:57:46.204Z,17.14
2019-06-27T01:58:33.945Z,17.16
2019-06-27T01:59:33.971Z,17.14
2019-06-27T02:00:33.989Z,17.16
2019-06-27T02:01:34.009Z,17.12
2019-06-27T02:02:34.029Z,17.15
2019-06-27T02:03:34.052Z,17.20
2019-06-27T02:04:34.076Z,17.16
2019-06-27T02:05:34.101Z,17.20
2019-06-27T02:06:34.116Z,17.12
2019-06-27T02:07:34.138Z,17.14
2019-06-27T02:08:34.220Z,17.12
2019-06-27T02:09:34.178Z,17.11
2019-06-27T02:10:34.199Z,17.09
2019-06-27T02:11:34.227Z,17.09
2019-06-27T02:12:34.241Z,17.14
2019-06-27T02:13:34.263Z,17.20
2019-06-27T02:14:34.283Z,17.12
2019-06-27T02:15:34.317Z,17.19
2019-06-27T02:16:34.329Z,17.23
2019-06-27T02:17:34.349Z,17.08
2019-06-27T02:18:34.386Z,17.06
2019-06-27T02:19:34.398Z,16.97
2019-06-27T02:20:34.419Z,17.04
2019-06-27T02:21:34.487Z,17.06
2019-06-27T02:22:34.461Z,16.96
2019-06-27T02:23:34.476Z,17.05
2019-06-27T02:24:34.496Z,17.09
2019-06-27T02:25:34.517Z,17.09
2019-06-27T02:26:34.898Z,16.99
2019-06-27T02:27:34.567Z,17.04
2019-06-27T02:28:34.581Z,16.99
2019-06-27T02:29:34.601Z,16.99
2019-06-27T02:30:34.624Z,16.97
2019-06-27T02:31:34.649Z,17.08
2019-06-27T02:32:34.683Z,17.06
2019-06-27T02:33:34.693Z,17.04
2019-06-27T02:34:34.706Z,17.12
2019-06-27T02:35:34.730Z,17.15
2019-06-27T02:36:34.749Z,17.11
2019-06-27T02:37:34.772Z,17.12
2019-06-27T02:38:34.805Z,16.93
2019-06-27T02:39:34.897Z,16.97
2019-06-27T02:40:34.837Z,16.84
2019-06-27T02:41:34.858Z,16.87
2019-06-27T02:42:34.886Z,16.89
2019-06-27T02:43:34.915Z,16.83
2019-06-27T02:44:34.945Z,16.87
2019-06-27T02:45:34.945Z,16.81
2019-06-27T02:46:34.964Z,16.84
2019-06-27T02:47:34.981Z,16.81
2019-06-27T02:48:35.011Z,16.91
2019-06-27T02:49:35.028Z,16.91
2019-06-27T02:50:35.054Z,16.94
2019-06-27T02:51:35.074Z,16.94
2019-06-27T02:52:35.102Z,17.01
2019-06-27T02:53:35.118Z,17.04
2019-06-27T02:54:35.141Z,16.93
2019-06-27T02:55:35.153Z,17.09
2019-06-27T02:56:35.194Z,17.06
2019-06-27T02:57:35.204Z,17.11
2019-06-27T02:58:35.221Z,17.08
2019-06-27T02:59:35.245Z,17.11
2019-06-27T03:00:35.267Z,17.06
2019-06-27T03:01:35.287Z,17.06
2019-06-27T03:02:35.302Z,17.12
2019-06-27T03:03:35.319Z,17.12
2019-06-27T03:04:35.345Z,17.12
2019-06-27T03:05:35.364Z,17.12
2019-06-27T03:06:35.394Z,16.94
2019-06-27T03:07:35.412Z,16.97
2019-06-27T03:08:35.426Z,16.87
2019-06-27T03:09:35.449Z,16.89
2019-06-27T03:10:35.474Z,16.96
2019-06-27T03:11:35.490Z,16.93
2019-06-27T03:12:35.527Z,17.04
2019-06-27T03:13:35.539Z,16.99
2019-06-27T03:14:35.553Z,16.87
2019-06-27T03:15:35.574Z,16.90
2019-06-27T03:16:35.602Z,16.84
2019-06-27T03:17:35.623Z,16.97
2019-06-27T03:18:35.645Z,16.99
2019-06-27T03:19:35.667Z,16.93
2019-06-27T03:20:35.679Z,16.96
2019-06-27T03:21:35.710Z,16.90
2019-06-27T03:22:35.730Z,16.90
2019-06-27T03:23:36.044Z,17.04
2019-06-27T03:24:35.765Z,17.02
2019-06-27T03:25:35.799Z,16.87
2019-06-27T03:26:35.809Z,16.74
2019-06-27T03:27:35.831Z,16.72
2019-06-27T03:28:50.675Z,16.65
2019-06-27T03:29:35.876Z,16.75
2019-06-27T03:30:35.903Z,16.69
2019-06-27T03:31:35.911Z,16.72
2019-06-27T03:32:35.940Z,16.74
2019-06-27T03:33:35.956Z,16.75
2019-06-27T03:34:35.976Z,16.69
2019-06-27T03:35:35.995Z,16.72
2019-06-27T03:36:36.016Z,16.74
2019-06-27T03:37:36.042Z,16.71
2019-06-27T03:38:36.057Z,16.51
2019-06-27T03:39:36.080Z,16.65
2019-06-27T03:40:36.118Z,16.68
2019-06-27T03:41:36.122Z,16.79
2019-06-27T03:42:36.143Z,16.87
2019-06-27T03:43:36.168Z,16.96
2019-06-27T03:44:36.184Z,16.93
2019-06-27T03:45:36.214Z,16.90
2019-06-27T03:46:36.227Z,16.89
2019-06-27T03:47:36.248Z,16.74
2019-06-27T03:48:36.267Z,16.71
2019-06-27T03:49:36.292Z,16.78
2019-06-27T03:50:36.308Z,16.75
2019-06-27T03:51:36.341Z,16.76
2019-06-27T03:52:36.357Z,16.86
2019-06-27T03:53:36.377Z,16.84
2019-06-27T03:54:36.392Z,16.75
2019-06-27T03:55:36.424Z,16.71
2019-06-27T03:56:36.438Z,16.68
2019-06-27T03:57:36.459Z,16.75
2019-06-27T03:58:36.486Z,16.78
2019-06-27T03:59:36.506Z,16.81
2019-06-27T04:00:36.525Z,16.96
2019-06-27T04:01:36.542Z,16.94
2019-06-27T04:02:36.571Z,16.93
2019-06-27T04:03:36.590Z,16.94
2019-06-27T04:04:36.605Z,16.97
2019-06-27T04:05:36.634Z,16.93
2019-06-27T04:06:36.648Z,16.96
2019-06-27T04:07:36.667Z,16.75
2019-06-27T04:08:36.710Z,16.68
2019-06-27T04:09:36.710Z,16.68
2019-06-27T04:10:36.736Z,16.69
2019-06-27T04:11:36.760Z,16.75
2019-06-27T04:12:36.775Z,16.79
2019-06-27T04:13:36.797Z,16.83
2019-06-27T04:14:36.816Z,16.75
2019-06-27T04:15:36.837Z,16.68
2019-06-27T04:16:36.870Z,16.68
2019-06-27T04:17:36.883Z,16.71
2019-06-27T04:18:36.900Z,16.65
2019-06-27T04:19:36.924Z,16.69
2019-06-27T04:20:36.949Z,16.79
2019-06-27T04:21:36.966Z,16.71
2019-06-27T04:22:36.989Z,16.66
2019-06-27T04:23:37.010Z,16.60
2019-06-27T04:24:37.026Z,16.64
2019-06-27T04:25:37.048Z,16.54
2019-06-27T04:26:37.076Z,16.61
2019-06-27T04:27:37.095Z,16.71
2019-06-27T04:28:37.124Z,16.69
2019-06-27T04:29:37.183Z,16.71
2019-06-27T04:30:37.257Z,16.75
2019-06-27T04:31:37.173Z,16.83
2019-06-27T04:32:37.204Z,16.87
2019-06-27T04:33:37.217Z,16.89
2019-06-27T04:34:37.237Z,16.93
2019-06-27T04:35:37.267Z,16.93
2019-06-27T04:36:37.288Z,16.93
2019-06-27T04:37:37.303Z,17.01
2019-06-27T04:38:37.327Z,16.93
2019-06-27T04:39:37.345Z,16.71
2019-06-27T04:40:37.380Z,16.72
2019-06-27T04:41:37.386Z,16.66
2019-06-27T04:42:37.412Z,16.71
2019-06-27T04:43:37.429Z,16.68
2019-06-27T04:44:37.457Z,16.61
2019-06-27T04:45:37.478Z,16.66
2019-06-27T04:46:37.498Z,16.68
2019-06-27T04:47:37.520Z,16.75
2019-06-27T04:48:37.565Z,16.69
2019-06-27T04:49:37.557Z,16.74
2019-06-27T04:50:37.575Z,16.76
2019-06-27T04:51:37.598Z,16.66
2019-06-27T04:52:37.624Z,16.56
2019-06-27T04:53:37.647Z,16.50
2019-06-27T04:54:37.661Z,16.39
2019-06-27T04:55:37.704Z,16.35
2019-06-27T04:56:37.712Z,16.47
2019-06-27T04:57:37.736Z,16.61
2019-06-27T04:58:37.748Z,16.57
2019-06-27T04:59:52.719Z,16.43
2019-06-27T05:00:37.794Z,16.51
2019-06-27T05:01:37.818Z,16.50
2019-06-27T05:02:38.003Z,16.46
2019-06-27T05:03:37.856Z,16.46
2019-06-27T05:04:37.883Z,16.43
2019-06-27T05:05:37.900Z,16.43
2019-06-27T05:06:37.924Z,16.49
2019-06-27T05:07:37.973Z,16.53
2019-06-27T05:08:37.959Z,16.47
2019-06-27T05:09:37.980Z,16.57
2019-06-27T05:10:38.002Z,16.53
2019-06-27T05:11:38.027Z,16.47
2019-06-27T05:12:38.061Z,16.57
2019-06-27T05:13:38.063Z,16.60
2019-06-27T05:14:38.282Z,16.56
2019-06-27T05:15:38.108Z,16.54
2019-06-27T05:16:38.129Z,16.57
2019-06-27T05:17:38.149Z,16.69
2019-06-27T05:18:38.168Z,16.74
2019-06-27T05:19:38.192Z,16.78
2019-06-27T05:20:38.229Z,16.78
2019-06-27T05:21:38.251Z,16.75
2019-06-27T05:22:38.260Z,16.83
2019-06-27T05:23:38.306Z,16.76
2019-06-27T05:24:38.300Z,16.87
2019-06-27T05:25:38.328Z,16.84
2019-06-27T05:26:38.359Z,16.87
2019-06-27T05:27:38.366Z,16.84
2019-06-27T05:28:38.383Z,16.79
2019-06-27T05:29:38.407Z,16.79
2019-06-27T05:30:38.434Z,16.86
2019-06-27T05:31:38.450Z,16.83
2019-06-27T05:32:38.469Z,16.84
2019-06-27T05:33:38.499Z,16.65
2019-06-27T05:34:38.534Z,16.54
2019-06-27T05:35:38.536Z,16.49
2019-06-27T05:36:38.564Z,16.49
2019-06-27T05:37:38.586Z,16.41
2019-06-27T05:38:38.621Z,16.26
2019-06-27T05:39:38.622Z,16.32
2019-06-27T05:40:38.648Z,16.38
2019-06-27T05:41:38.672Z,16.54
2019-06-27T05:42:38.688Z,16.61
2019-06-27T05:43:38.709Z,16.57
2019-06-27T05:44:38.746Z,16.69
2019-06-27T05:45:38.756Z,16.72
2019-06-27T05:46:38.780Z,16.75
2019-06-27T05:47:38.799Z,16.76
2019-06-27T05:48:39.773Z,16.93
2019-06-27T05:49:38.843Z,16.79
2019-06-27T05:50:38.858Z,16.66
2019-06-27T05:51:38.879Z,16.58
2019-06-27T05:52:38.919Z,16.65
2019-06-27T05:53:38.929Z,16.74
2019-06-27T05:54:38.943Z,16.72
2019-06-27T05:55:38.966Z,16.83
2019-06-27T05:56:38.986Z,16.89
2019-06-27T05:57:39.009Z,16.72
2019-06-27T05:58:39.032Z,16.83
2019-06-27T05:59:39.052Z,16.60
2019-06-27T06:00:39.091Z,16.56
2019-06-27T06:01:39.095Z,16.65
2019-06-27T06:02:39.119Z,16.84
2019-06-27T06:03:39.140Z,16.74
2019-06-27T06:04:39.168Z,16.75
2019-06-27T06:05:39.182Z,16.87
2019-06-27T06:06:39.203Z,16.74
2019-06-27T06:07:39.241Z,16.75
2019-06-27T06:08:39.256Z,16.74
2019-06-27T06:09:39.279Z,16.58
2019-06-27T06:10:39.293Z,16.60
2019-06-27T06:11:39.318Z,16.61
2019-06-27T06:12:39.336Z,16.69
2019-06-27T06:13:39.365Z,16.68
2019-06-27T06:14:39.381Z,16.87
2019-06-27T06:15:39.399Z,17.01
2019-06-27T06:16:39.421Z,17.06
2019-06-27T06:17:39.445Z,17.11
2019-06-27T06:18:39.470Z,17.30
2019-06-27T06:19:39.490Z,17.60
2019-06-27T06:20:39.515Z,17.79
2019-06-27T06:21:39.555Z,18.04
2019-06-27T06:22:39.552Z,17.98
2019-06-27T06:23:39.578Z,18.22
2019-06-27T06:24:39.604Z,18.34
2019-06-27T06:25:39.627Z,18.16
2019-06-27T06:26:39.645Z,18.13
2019-06-27T06:27:39.665Z,17.74
2019-06-27T06:28:39.689Z,17.57
2019-06-27T06:29:39.711Z,17.26
2019-06-27T06:30:44.446Z,17.09
2019-06-27T06:31:39.759Z,17.11
2019-06-27T06:32:39.781Z,16.96
2019-06-27T06:33:39.804Z,16.91
2019-06-27T06:34:39.832Z,17.29
2019-06-27T06:35:39.855Z,17.36
2019-06-27T06:36:39.879Z,17.15
2019-06-27T06:37:39.896Z,16.99
2019-06-27T06:38:39.924Z,17.27
2019-06-27T06:39:39.943Z,17.60
2019-06-27T06:40:39.963Z,17.70
2019-06-27T06:41:39.994Z,17.71
2019-06-27T06:42:40.036Z,17.90
2019-06-27T06:43:40.031Z,17.95
2019-06-27T06:44:40.052Z,18.13
2019-06-27T06:45:40.079Z,18.26
2019-06-27T06:46:40.119Z,18.53
2019-06-27T06:47:40.127Z,18.49
2019-06-27T06:48:40.146Z,18.70
2019-06-27T06:49:40.180Z,18.81
2019-06-27T06:50:40.193Z,18.73
2019-06-27T06:51:40.223Z,18.49
2019-06-27T06:52:40.241Z,18.28
2019-06-27T06:53:40.268Z,18.13
2019-06-27T06:54:40.291Z,18.10
2019-06-27T06:55:42.714Z,18.23
2019-06-27T06:56:40.330Z,18.35
2019-06-27T06:57:40.354Z,18.18
2019-06-27T06:58:40.391Z,18.00
2019-06-27T06:59:40.401Z,17.98
2019-06-27T07:00:40.428Z,18.04
2019-06-27T07:01:40.452Z,18.37
2019-06-27T07:02:40.484Z,18.45
2019-06-27T07:03:40.498Z,18.52
2019-06-27T07:04:40.521Z,18.74
2019-06-27T07:05:40.550Z,18.52
2019-06-27T07:06:40.572Z,18.58
2019-06-27T07:07:40.591Z,18.11
2019-06-27T07:08:40.621Z,18.15
2019-06-27T07:09:40.648Z,18.44
2019-06-27T07:10:40.663Z,18.52
2019-06-27T07:11:40.750Z,18.92
2019-06-27T07:12:40.711Z,19.22
2019-06-27T07:13:40.737Z,19.54
2019-06-27T07:14:40.757Z,19.49
2019-06-27T07:15:40.786Z,19.62
2019-06-27T07:16:40.810Z,19.54
2019-06-27T07:17:40.837Z,19.52
2019-06-27T07:18:40.869Z,19.29
2019-06-27T07:19:40.880Z,18.89
2019-06-27T07:20:40.902Z,18.78
2019-06-27T07:21:40.926Z,18.78
2019-06-27T07:22:40.958Z,18.50
2019-06-27T07:23:40.973Z,18.40
2019-06-27T07:24:41.002Z,18.33
2019-06-27T07:25:41.953Z,18.41
2019-06-27T07:26:41.045Z,18.53
2019-06-27T07:27:41.073Z,18.50
2019-06-27T07:28:41.129Z,18.34
2019-06-27T07:29:41.131Z,18.44
2019-06-27T07:30:41.155Z,18.25
2019-06-27T07:31:41.181Z,18.41
2019-06-27T07:32:41.199Z,18.50
2019-06-27T07:33:41.226Z,18.29
2019-06-27T07:34:41.247Z,18.45
2019-06-27T07:35:41.264Z,18.44
2019-06-27T07:36:41.292Z,18.47
2019-06-27T07:37:41.321Z,18.56
2019-06-27T07:38:41.339Z,18.66
2019-06-27T07:39:41.361Z,18.74
2019-06-27T07:40:41.388Z,18.92
2019-06-27T07:41:41.408Z,19.12
2019-06-27T07:42:41.437Z,19.24
2019-06-27T07:43:41.462Z,18.95
2019-06-27T07:44:41.482Z,18.43
2019-06-27T07:45:41.508Z,18.45
2019-06-27T07:46:41.526Z,18.60
2019-06-27T07:47:41.556Z,19.09
2019-06-27T07:48:41.581Z,19.07
2019-06-27T07:49:41.621Z,19.21
2019-06-27T07:50:41.629Z,19.27
2019-06-27T07:51:41.654Z,19.54
2019-06-27T07:52:41.924Z,19.63
2019-06-27T07:53:41.696Z,19.64
2019-06-27T07:54:41.724Z,19.26
2019-06-27T07:55:41.741Z,18.73
2019-06-27T07:56:41.772Z,18.77
2019-06-27T07:57:41.819Z,18.71
2019-06-27T07:58:41.825Z,18.92
2019-06-27T07:59:41.833Z,18.53
2019-06-27T08:00:41.860Z,18.49
2019-06-27T08:01:41.889Z,18.58
2019-06-27T08:02:41.921Z,18.55
2019-06-27T08:03:41.927Z,18.75
2019-06-27T08:04:41.954Z,18.81
2019-06-27T08:05:41.978Z,18.78
2019-06-27T08:06:42.007Z,18.77
2019-06-27T08:07:42.029Z,19.04
2019-06-27T08:08:42.066Z,19.07
2019-06-27T08:09:42.074Z,19.08
2019-06-27T08:10:42.099Z,18.93
2019-06-27T08:11:42.115Z,19.09
2019-06-27T08:12:42.756Z,18.73
2019-06-27T08:13:42.169Z,18.31
2019-06-27T08:14:42.195Z,18.00
2019-06-27T08:15:42.214Z,18.15
2019-06-27T08:16:42.288Z,18.34
2019-06-27T08:17:42.251Z,18.71
2019-06-27T08:18:42.281Z,19.15
2019-06-27T08:19:42.301Z,19.41
2019-06-27T08:20:42.323Z,19.67
2019-06-27T08:21:42.347Z,19.70
2019-06-27T08:22:42.369Z,19.59
2019-06-27T08:23:42.390Z,19.52
2019-06-27T08:24:42.422Z,19.63
2019-06-27T08:25:42.439Z,19.58
2019-06-27T08:26:42.465Z,19.76
2019-06-27T08:27:42.486Z,19.95
2019-06-27T08:28:42.512Z,19.77
2019-06-27T08:29:42.536Z,19.36
2019-06-27T08:30:42.568Z,19.21
2019-06-27T08:31:51.412Z,19.26
2019-06-27T08:32:42.605Z,19.16
2019-06-27T08:33:42.673Z,19.11
2019-06-27T08:34:42.650Z,19.36
2019-06-27T08:35:42.669Z,19.55
2019-06-27T08:36:42.693Z,19.49
2019-06-27T08:37:42.718Z,19.62
2019-06-27T08:38:42.753Z,19.86
2019-06-27T08:39:42.769Z,20.02
2019-06-27T08:40:42.802Z,20.11
2019-06-27T08:41:42.809Z,19.99
2019-06-27T08:42:42.839Z,20.14
2019-06-27T08:43:42.855Z,20.21
2019-06-27T08:44:42.886Z,20.13
2019-06-27T08:45:42.901Z,20.21
2019-06-27T08:46:42.933Z,20.09
2019-06-27T08:47:42.954Z,19.92
2019-06-27T08:48:42.975Z,20.03
2019-06-27T08:49:43.001Z,19.94
2019-06-27T08:50:43.019Z,20.00
2019-06-27T08:51:43.049Z,20.00
2019-06-27T08:52:43.070Z,20.03
2019-06-27T08:53:43.089Z,20.11
2019-06-27T08:54:43.115Z,20.36
2019-06-27T08:55:43.139Z,20.39
2019-06-27T08:56:43.166Z,20.37
2019-06-27T08:57:43.192Z,20.21
2019-06-27T08:58:43.214Z,20.37
2019-06-27T08:59:43.538Z,20.44
2019-06-27T09:00:45.857Z,20.36
2019-06-27T09:01:43.284Z,19.99
2019-06-27T09:02:43.308Z,19.77
2019-06-27T09:03:43.330Z,19.79
2019-06-27T09:04:43.351Z,19.88
2019-06-27T09:05:43.375Z,19.94
2019-06-27T09:06:43.398Z,19.94
2019-06-27T09:07:43.432Z,19.94
2019-06-27T09:08:43.474Z,19.96
2019-06-27T09:09:43.467Z,20.11
2019-06-27T09:10:43.502Z,19.96
2019-06-27T09:11:43.520Z,20.25
2019-06-27T09:12:43.544Z,20.44
2019-06-27T09:13:44.020Z,20.63
2019-06-27T09:14:43.590Z,20.93
2019-06-27T09:15:43.608Z,20.80
2019-06-27T09:16:46.585Z,20.62
2019-06-27T09:17:43.665Z,20.82
2019-06-27T09:18:43.682Z,21.03
2019-06-27T09:19:44.057Z,20.60
2019-06-27T09:20:43.736Z,20.16
2019-06-27T09:21:43.758Z,19.76
2019-06-27T09:22:43.776Z,19.89
2019-06-27T09:23:43.799Z,20.09
2019-06-27T09:24:43.849Z,20.24
2019-06-27T09:25:43.871Z,20.24
2019-06-27T09:26:43.872Z,20.24
2019-06-27T09:27:43.894Z,20.25
2019-06-27T09:28:43.989Z,20.25
2019-06-27T09:29:43.949Z,20.06
2019-06-27T09:30:43.972Z,20.10
2019-06-27T09:31:43.986Z,20.24
2019-06-27T09:32:44.025Z,20.43
2019-06-27T09:33:44.037Z,20.26
2019-06-27T09:34:44.064Z,20.31
2019-06-27T09:35:44.089Z,20.44
2019-06-27T09:36:44.109Z,20.80
2019-06-27T09:37:44.134Z,20.88
2019-06-27T09:38:44.173Z,20.81
2019-06-27T09:39:44.186Z,20.87
2019-06-27T09:40:44.199Z,20.90
2019-06-27T09:41:44.226Z,20.93
2019-06-27T09:42:44.251Z,21.15
2019-06-27T09:43:44.272Z,21.25
2019-06-27T09:44:44.297Z,21.14
2019-06-27T09:45:44.321Z,21.18
2019-06-27T09:46:44.345Z,21.25
2019-06-27T09:47:44.368Z,21.35
2019-06-27T09:48:44.399Z,21.36
2019-06-27T09:49:44.420Z,21.09
2019-06-27T09:50:44.442Z,21.27
2019-06-27T09:51:44.468Z,21.40
2019-06-27T09:52:44.491Z,21.62
2019-06-27T09:53:44.509Z,21.88
2019-06-27T09:54:44.535Z,21.92
2019-06-27T09:55:47.323Z,21.96
2019-06-27T09:56:44.589Z,21.95
2019-06-27T09:57:44.607Z,21.79
2019-06-27T09:58:44.636Z,21.83
2019-06-27T09:59:44.658Z,21.80
2019-06-27T10:00:44.762Z,21.60
2019-06-27T10:01:44.703Z,21.55
2019-06-27T10:02:44.728Z,21.55
2019-06-27T10:03:44.761Z,21.43
2019-06-27T10:04:44.783Z,21.48
2019-06-27T10:05:44.801Z,21.40
2019-06-27T10:06:44.828Z,21.32
2019-06-27T10:07:44.861Z,21.15
2019-06-27T10:08:44.877Z,21.14
2019-06-27T10:09:44.909Z,21.24
2019-06-27T10:10:44.925Z,21.37
2019-06-27T10:11:44.954Z,21.29
2019-06-27T10:12:44.973Z,21.36
2019-06-27T10:13:45.002Z,21.43
2019-06-27T10:14:45.026Z,21.27
2019-06-27T10:15:45.052Z,21.39
2019-06-27T10:16:45.085Z,21.69
2019-06-27T10:17:45.115Z,21.77
2019-06-27T10:18:45.116Z,21.85
2019-06-27T10:19:45.199Z,21.82
2019-06-27T10:20:45.172Z,21.96
2019-06-27T10:21:45.190Z,21.70
2019-06-27T10:22:45.223Z,21.52
2019-06-27T10:23:45.246Z,21.54
2019-06-27T10:24:45.262Z,21.57
2019-06-27T10:25:45.287Z,21.61
2019-06-27T10:26:45.310Z,21.69
2019-06-27T10:27:45.335Z,21.91
2019-06-27T10:28:45.361Z,21.92
2019-06-27T10:29:45.388Z,21.98
2019-06-27T10:30:49.055Z,22.02
2019-06-27T10:31:45.434Z,22.10
2019-06-27T10:32:58.464Z,22.29
2019-06-27T10:33:45.485Z,22.18
2019-06-27T10:34:45.516Z,22.07
2019-06-27T10:35:45.531Z,22.02
2019-06-27T10:36:45.572Z,22.07
2019-06-27T10:37:45.582Z,22.23
2019-06-27T10:38:45.612Z,22.25
2019-06-27T10:39:45.629Z,22.29
2019-06-27T10:40:45.652Z,22.43
2019-06-27T10:41:45.681Z,22.51
2019-06-27T10:42:45.702Z,22.63
2019-06-27T10:43:45.731Z,22.70
2019-06-27T10:44:45.760Z,22.68
2019-06-27T10:45:45.777Z,22.73
2019-06-27T10:46:45.806Z,22.93
2019-06-27T10:47:45.826Z,22.98
2019-06-27T10:48:45.860Z,22.85
2019-06-27T10:49:45.875Z,22.73
2019-06-27T10:50:46.685Z,22.69
2019-06-27T10:51:45.929Z,22.63
2019-06-27T10:52:45.950Z,22.68
2019-06-27T10:53:45.975Z,22.68
2019-06-27T10:54:46.000Z,22.47
2019-06-27T10:55:46.034Z,22.44
2019-06-27T10:56:46.051Z,22.59
2019-06-27T10:57:46.077Z,22.69
2019-06-27T10:58:46.097Z,22.66
2019-06-27T10:59:46.123Z,22.85
2019-06-27T11:00:46.148Z,22.99
2019-06-27T11:01:46.180Z,22.84
2019-06-27T11:02:46.198Z,22.66
2019-06-27T11:03:46.231Z,22.39
2019-06-27T11:04:46.254Z,22.50
2019-06-27T11:05:46.274Z,22.47
2019-06-27T11:06:46.305Z,22.47
2019-06-27T11:07:46.325Z,22.29
2019-06-27T11:08:46.348Z,22.43
2019-06-27T11:09:49.990Z,22.59
2019-06-27T11:10:46.417Z,22.81
2019-06-27T11:11:46.423Z,22.90
2019-06-27T11:12:46.459Z,22.98
2019-06-27T11:13:58.289Z,23.00
2019-06-27T11:14:58.573Z,23.06
2019-06-27T11:15:49.313Z,22.81
2019-06-27T11:16:46.546Z,22.69
2019-06-27T11:17:46.580Z,22.73
2019-06-27T11:18:46.602Z,22.94
2019-06-27T11:19:52.262Z,22.99
2019-06-27T11:20:46.647Z,22.94
2019-06-27T11:21:46.677Z,23.06
2019-06-27T11:22:46.704Z,22.94
2019-06-27T11:23:46.722Z,22.85
2019-06-27T11:24:46.746Z,22.75
2019-06-27T11:25:46.779Z,22.81
2019-06-27T11:26:46.801Z,23.00
2019-06-27T11:27:46.823Z,23.08
2019-06-27T11:28:46.860Z,23.02
2019-06-27T11:29:46.878Z,23.10
2019-06-27T11:30:46.920Z,23.15
2019-06-27T11:31:46.922Z,23.12
2019-06-27T11:32:46.954Z,23.10
2019-06-27T11:33:46.973Z,23.03
2019-06-27T11:34:46.997Z,23.23
2019-06-27T11:35:47.114Z,23.31
2019-06-27T11:36:47.054Z,23.36
2019-06-27T11:37:47.077Z,23.37
2019-06-27T11:38:47.099Z,23.34
2019-06-27T11:39:47.122Z,23.37
2019-06-27T11:40:47.149Z,23.51
2019-06-27T11:41:47.172Z,23.61
2019-06-27T11:42:47.199Z,23.77
2019-06-27T11:43:47.258Z,23.76
2019-06-27T11:44:47.248Z,23.56
2019-06-27T11:45:47.283Z,23.66
2019-06-27T11:46:47.296Z,23.84
2019-06-27T11:47:47.323Z,23.91
2019-06-27T11:48:47.349Z,23.95
2019-06-27T11:49:47.374Z,23.88
2019-06-27T11:50:47.399Z,23.71
2019-06-27T11:51:47.426Z,23.81
2019-06-27T11:52:47.706Z,23.95
2019-06-27T11:53:47.480Z,24.10
2019-06-27T11:54:47.500Z,23.96
2019-06-27T11:55:47.528Z,23.91
2019-06-27T11:56:47.558Z,23.91
2019-06-27T11:57:47.582Z,23.40
2019-06-27T11:58:47.606Z,23.58
2019-06-27T11:59:47.631Z,23.66
2019-06-27T12:00:47.676Z,23.80
2019-06-27T12:01:47.681Z,24.03
2019-06-27T12:02:47.704Z,23.80
2019-06-27T12:03:49.818Z,23.87
2019-06-27T12:04:47.754Z,23.68
2019-06-27T12:05:47.785Z,23.61
2019-06-27T12:06:47.804Z,23.66
2019-06-27T12:07:47.833Z,23.69
2019-06-27T12:08:47.862Z,23.86
2019-06-27T12:09:47.883Z,23.92
2019-06-27T12:10:47.910Z,23.76
2019-06-27T12:11:47.930Z,23.84
2019-06-27T12:12:47.956Z,23.91
2019-06-27T12:13:47.988Z,23.92
2019-06-27T12:14:48.009Z,23.95
2019-06-27T12:15:51.478Z,23.99
2019-06-27T12:16:48.161Z,24.03
2019-06-27T12:17:48.091Z,24.03
2019-06-27T12:18:48.110Z,24.14
2019-06-27T12:19:48.140Z,24.29
2019-06-27T12:20:48.171Z,24.24
2019-06-27T12:21:48.193Z,24.33
2019-06-27T12:22:48.216Z,24.11
2019-06-27T12:23:48.280Z,24.01
2019-06-27T12:24:48.269Z,24.02
2019-06-27T12:25:48.290Z,23.91
2019-06-27T12:26:48.457Z,23.86
2019-06-27T12:27:48.350Z,24.05
2019-06-27T12:28:48.365Z,24.08
2019-06-27T12:29:48.393Z,23.95
2019-06-27T12:30:48.414Z,23.92
2019-06-27T12:31:51.604Z,23.88
2019-06-27T12:32:52.490Z,23.95
2019-06-27T12:34:05.209Z,24.01
2019-06-27T12:34:48.518Z,24.10
2019-06-27T12:35:48.550Z,24.21
2019-06-27T12:36:48.573Z,24.33
2019-06-27T12:37:48.597Z,24.50
2019-06-27T12:38:48.624Z,24.57
2019-06-27T12:39:48.652Z,24.66
2019-06-27T12:40:48.678Z,24.76
2019-06-27T12:41:48.701Z,24.86
2019-06-27T12:42:48.829Z,24.88
2019-06-27T12:43:48.754Z,24.74
2019-06-27T12:44:48.795Z,24.58
2019-06-27T12:45:48.797Z,24.48
2019-06-27T12:46:48.827Z,24.30
2019-06-27T12:47:48.852Z,24.32
2019-06-27T12:48:48.877Z,24.36
2019-06-27T12:50:01.533Z,24.55
2019-06-27T12:50:48.933Z,24.53
2019-06-27T12:51:48.954Z,24.57
2019-06-27T12:52:49.009Z,24.88